createdAt,value
2019-05-11T00:02:25.578Z,12.77
2019-05-11T00:04:57.467Z,13.07
2019-05-11T00:07:32.814Z,13.77
2019-05-11T00:10:02.037Z,13.97
2019-05-11T00:12:31.650Z,14.00
2019-05-11T00:15:01.251Z,14.63
2019-05-11T00:17:31.098Z,12.90
2019-05-11T00:20:00.976Z,13.87
2019-05-11T00:22:30.860Z,13.73
2019-05-11T00:25:00.801Z,14.13
2019-05-11T00:27:33.695Z,13.40
2019-05-11T00:30:05.821Z,15.30
2019-05-11T00:32:35.126Z,14.78
2019-05-11T00:35:05.553Z,14.53
2019-05-11T00:37:39.441Z,13.87
2019-05-11T00:40:14.505Z,13.97
2019-05-11T00:42:41.993Z,12.80
2019-05-11T00:45:11.891Z,13.60
2019-05-11T00:47:41.485Z,12.50
2019-05-11T00:50:11.586Z,12.93
2019-05-11T00:52:41.615Z,12.87
2019-05-11T00:55:24.364Z,12.70
2019-05-11T00:57:53.410Z,12.40
2019-05-11T01:00:23.164Z,12.50
2019-05-11T01:03:19.241Z,11.90
2019-05-11T01:05:51.997Z,10.90
2019-05-11T01:08:23.260Z,11.60
2019-05-11T01:10:56.802Z,12.20
2019-05-11T01:13:27.271Z,12.20
2019-05-11T01:15:57.323Z,11.27
2019-05-11T01:18:27.097Z,12.67
2019-05-11T01:20:57.055Z,11.37
2019-05-11T01:23:26.969Z,11.37
2019-05-11T01:25:58.630Z,12.07
2019-05-11T01:28:28.534Z,12.90
2019-05-11T01:30:58.004Z,11.90
2019-05-11T01:33:27.466Z,12.70
2019-05-11T01:38:51.553Z,12.20
2019-05-11T01:41:20.583Z,12.23
2019-05-11T01:43:49.883Z,12.63
2019-05-11T01:46:19.270Z,12.93
2019-05-11T01:48:48.326Z,12.00
2019-05-11T01:51:18.108Z,12.60
2019-05-11T01:53:48.168Z,12.50
2019-05-11T01:56:17.913Z,11.47
2019-05-11T01:58:46.725Z,11.90
2019-05-11T02:01:15.792Z,11.90
2019-05-11T02:03:44.878Z,12.43
2019-05-11T02:06:13.882Z,11.57
2019-05-11T02:08:42.946Z,13.30
2019-05-11T02:11:15.701Z,13.00
2019-05-11T02:13:43.095Z,12.63
2019-05-11T02:16:12.253Z,13.33
2019-05-11T02:18:44.199Z,12.87
2019-05-11T02:21:13.542Z,13.37
2019-05-11T02:23:42.550Z,13.40
2019-05-11T02:26:11.637Z,11.80
2019-05-11T02:28:40.958Z,13.43
2019-05-11T02:31:10.532Z,13.10
2019-05-11T02:33:39.423Z,12.30
2019-05-11T02:36:08.430Z,13.53
2019-05-11T02:38:37.549Z,13.50
2019-05-11T02:41:06.693Z,13.10
2019-05-11T02:43:35.864Z,14.13
2019-05-11T02:46:04.725Z,12.63
2019-05-11T02:48:33.774Z,13.83
2019-05-11T02:51:03.683Z,13.27
2019-05-11T02:53:33.446Z,14.53
2019-05-11T02:56:03.880Z,14.17
2019-05-11T02:58:32.790Z,15.07
2019-05-11T03:01:01.680Z,13.90
2019-05-11T03:03:30.900Z,13.60
2019-05-11T03:05:59.733Z,13.00
2019-05-11T03:08:28.777Z,13.67
2019-05-11T03:10:57.583Z,13.23
2019-05-11T03:13:27.130Z,13.10
2019-05-11T03:15:56.269Z,13.10
2019-05-11T03:18:25.653Z,11.50
2019-05-11T03:20:55.324Z,11.30
2019-05-11T03:23:24.439Z,12.00
2019-05-11T03:25:53.840Z,11.70
2019-05-11T03:28:23.106Z,11.43
2019-05-11T03:30:52.233Z,11.20
2019-05-11T03:33:22.318Z,11.93
2019-05-11T03:35:51.138Z,13.10
2019-05-11T03:38:20.393Z,12.20
2019-05-11T03:40:49.229Z,11.97
2019-05-11T03:43:18.769Z,12.20
2019-05-11T03:45:47.804Z,12.60
2019-05-11T03:48:17.409Z,11.43
2019-05-11T03:50:46.431Z,13.83
2019-05-11T03:53:15.728Z,13.13
2019-05-11T03:55:44.900Z,12.07
2019-05-11T03:58:13.983Z,12.30
2019-05-11T04:00:43.115Z,11.30
2019-05-11T04:03:12.283Z,10.75
2019-05-11T04:05:41.779Z,11.10
2019-05-11T04:08:12.357Z,10.80
2019-05-11T04:10:41.615Z,10.97
2019-05-11T04:13:10.526Z,11.20
2019-05-11T04:15:39.551Z,11.07
2019-05-11T04:18:08.937Z,10.73
2019-05-11T04:20:37.819Z,11.17
2019-05-11T04:23:07.167Z,11.73
2019-05-11T04:25:36.230Z,12.70
2019-05-11T04:28:05.302Z,12.93
2019-05-11T04:30:34.235Z,13.50
2019-05-11T04:33:03.339Z,11.80
2019-05-11T04:35:32.577Z,13.23
2019-05-11T04:38:01.636Z,12.47
2019-05-11T04:40:31.002Z,12.13
2019-05-11T04:43:00.075Z,12.33
2019-05-11T04:45:29.141Z,11.80
2019-05-11T04:47:58.543Z,12.30
2019-05-11T04:50:27.443Z,12.20
2019-05-11T04:52:56.333Z,11.90
2019-05-11T04:55:25.192Z,12.20
2019-05-11T04:57:54.250Z,12.10
2019-05-11T05:00:23.345Z,11.67
2019-05-11T05:02:54.168Z,11.63
2019-05-11T05:05:23.266Z,10.83
2019-05-11T05:07:52.934Z,11.47
2019-05-11T05:10:22.538Z,11.48
2019-05-11T05:12:53.302Z,12.63
2019-05-11T05:15:23.031Z,11.67
2019-05-11T05:17:52.139Z,12.10
2019-05-11T05:20:22.163Z,11.67
2019-05-11T05:22:51.549Z,11.23
2019-05-11T05:25:20.982Z,9.93
2019-05-11T05:27:49.832Z,10.03
2019-05-11T05:30:19.087Z,9.47
2019-05-11T05:32:48.705Z,10.40
2019-05-11T05:35:17.544Z,10.90
2019-05-11T05:37:46.751Z,10.55
2019-05-11T05:40:15.742Z,9.70
2019-05-11T05:42:44.944Z,10.37
2019-05-11T05:45:14.062Z,9.50
2019-05-11T05:47:43.447Z,9.77
2019-05-11T05:50:15.942Z,9.07
2019-05-11T05:52:45.206Z,9.73
2019-05-11T05:55:14.753Z,9.93
2019-05-11T05:57:44.210Z,8.90
2019-05-11T06:00:13.513Z,9.60
2019-05-11T06:02:43.259Z,9.70
2019-05-11T06:05:12.530Z,8.60
2019-05-11T06:07:41.879Z,9.67
2019-05-11T06:10:11.176Z,9.13
2019-05-11T06:12:40.839Z,9.70
2019-05-11T06:15:10.667Z,10.20
2019-05-11T06:17:41.396Z,10.03
2019-05-11T06:20:11.649Z,10.80
2019-05-11T06:22:41.439Z,11.20
2019-05-11T06:25:10.723Z,10.80
2019-05-11T06:27:40.539Z,12.03
2019-05-11T06:30:10.096Z,11.60
2019-05-11T06:32:39.313Z,11.23
2019-05-11T06:35:09.546Z,13.10
2019-05-11T06:37:38.883Z,13.50
2019-05-11T06:40:08.449Z,12.27
2019-05-11T06:42:37.601Z,13.80
2019-05-11T06:45:06.951Z,12.17
2019-05-11T06:47:35.826Z,13.10
2019-05-11T06:50:05.115Z,12.40
2019-05-11T06:52:34.332Z,12.00
2019-05-11T06:55:03.510Z,12.07
2019-05-11T06:57:36.947Z,13.00
2019-05-11T07:00:06.276Z,12.93
2019-05-11T07:02:35.342Z,13.47
2019-05-11T07:05:04.324Z,10.95
2019-05-11T07:07:47.456Z,11.77
2019-05-11T07:10:13.556Z,12.40
2019-05-11T07:12:42.806Z,11.23
2019-05-11T07:15:12.487Z,10.98
2019-05-11T07:17:41.735Z,10.70
2019-05-11T07:20:12.446Z,11.70
2019-05-11T07:22:41.743Z,11.33
2019-05-11T07:25:11.439Z,12.47
2019-05-11T07:27:40.733Z,12.55
2019-05-11T07:30:10.330Z,12.90
2019-05-11T07:32:39.395Z,13.80
2019-05-11T07:35:08.790Z,13.60
2019-05-11T07:37:38.560Z,15.20
2019-05-11T07:40:08.369Z,13.90
2019-05-11T07:42:38.267Z,13.93
2019-05-11T07:45:08.847Z,12.90
2019-05-11T07:47:38.534Z,14.43
2019-05-11T07:50:09.384Z,13.80
2019-05-11T07:52:38.659Z,13.77
2019-05-11T07:55:08.558Z,14.10
2019-05-11T07:57:39.275Z,13.43
2019-05-11T08:00:08.831Z,13.10
2019-05-11T08:02:38.682Z,13.93
2019-05-11T08:05:09.050Z,16.23
2019-05-11T08:07:38.301Z,16.47
2019-05-11T08:14:28.450Z,16.43
2019-05-11T08:16:59.314Z,14.80
2019-05-11T08:19:28.396Z,17.70
2019-05-11T08:21:58.191Z,16.23
2019-05-11T08:24:28.564Z,16.60
2019-05-11T08:26:58.362Z,16.87
2019-05-11T08:29:27.947Z,18.03
2019-05-11T08:31:58.093Z,18.33
2019-05-11T08:34:28.683Z,19.80
2019-05-11T08:36:58.362Z,18.70
2019-05-11T08:39:28.848Z,19.17
2019-05-11T08:41:59.122Z,18.50
2019-05-11T08:44:28.821Z,19.50
2019-05-11T08:46:58.348Z,20.10
2019-05-11T08:49:29.438Z,20.00
2019-05-11T08:51:59.003Z,17.40
2019-05-11T08:54:28.969Z,19.00
2019-05-11T08:56:58.852Z,20.50
2019-05-11T08:59:31.243Z,18.70
2019-05-11T09:02:00.320Z,20.23
2019-05-11T09:04:30.291Z,21.20
2019-05-11T09:06:59.801Z,20.33
2019-05-11T09:09:29.523Z,21.63
2019-05-11T09:11:58.994Z,18.17
2019-05-11T09:14:29.328Z,19.70
2019-05-11T09:16:58.926Z,20.53
2019-05-11T09:19:28.566Z,19.27
2019-05-11T09:21:58.924Z,17.73
2019-05-11T09:24:29.381Z,19.73
2019-05-11T09:26:58.797Z,18.13
2019-05-11T09:29:28.396Z,17.03
2019-05-11T09:31:58.222Z,16.40
2019-05-11T09:34:28.924Z,17.10
2019-05-11T09:36:58.756Z,18.37
2019-05-11T09:39:28.272Z,18.30
2019-05-11T09:41:58.508Z,17.93
2019-05-11T09:44:28.868Z,16.33
2019-05-11T09:47:01.922Z,16.87
2019-05-11T09:49:43.961Z,16.87
2019-05-11T09:52:00.130Z,16.47
2019-05-11T09:54:29.510Z,14.90
2019-05-11T09:56:58.805Z,14.80
2019-05-11T09:59:28.321Z,13.40
2019-05-11T10:01:58.933Z,14.23
2019-05-11T10:04:28.967Z,15.50
2019-05-11T10:06:58.709Z,12.97
2019-05-11T10:09:34.391Z,14.30
2019-05-11T10:12:03.547Z,13.80
2019-05-11T10:14:33.081Z,13.70
2019-05-11T10:17:02.455Z,14.00
2019-05-11T10:19:31.951Z,14.05
2019-05-11T10:22:01.011Z,15.40
2019-05-11T10:24:30.305Z,14.33
2019-05-11T10:26:59.597Z,15.13
2019-05-11T10:29:29.074Z,14.90
2019-05-11T10:31:58.951Z,14.50
2019-05-11T10:34:29.026Z,14.67
2019-05-11T10:36:59.578Z,14.30
2019-05-11T10:39:32.858Z,14.60
2019-05-11T10:42:04.227Z,14.40
2019-05-11T10:44:47.868Z,14.83
2019-05-11T10:47:18.447Z,14.77
2019-05-11T10:49:48.468Z,14.57
2019-05-11T10:52:18.109Z,13.38
2019-05-11T10:54:47.885Z,12.27
2019-05-11T10:57:18.933Z,12.27
2019-05-11T10:59:48.910Z,13.47
2019-05-11T11:02:18.561Z,12.47
2019-05-11T11:04:48.610Z,11.90
2019-05-11T11:07:19.476Z,12.00
2019-05-11T11:09:49.180Z,12.63
2019-05-11T11:12:34.018Z,11.23
2019-05-11T11:15:07.719Z,10.73
2019-05-11T11:17:38.196Z,10.70
2019-05-11T11:20:08.632Z,11.78
2019-05-11T11:22:43.546Z,10.50
2019-05-11T11:25:09.829Z,10.50
2019-05-11T11:27:39.239Z,9.50
2019-05-11T11:30:11.079Z,10.25
2019-05-11T11:32:41.319Z,9.60
2019-05-11T11:35:10.231Z,9.50
2019-05-11T11:37:39.791Z,9.20
2019-05-11T11:40:09.838Z,9.47
2019-05-11T11:43:05.777Z,8.97
2019-05-11T11:45:34.650Z,8.87
2019-05-11T11:48:03.947Z,9.23
2019-05-11T11:50:33.187Z,8.57
2019-05-11T11:53:01.962Z,8.60
2019-05-11T11:55:31.295Z,8.00
2019-05-11T11:58:00.850Z,8.90
2019-05-11T12:00:30.686Z,7.80
2019-05-11T12:03:02.914Z,8.20
2019-05-11T12:05:32.261Z,8.43
2019-05-11T12:08:01.812Z,7.90
2019-05-11T12:10:31.211Z,6.80
2019-05-11T12:13:01.178Z,7.30
2019-05-11T12:15:30.270Z,7.40
2019-05-11T12:17:59.051Z,6.10
2019-05-11T12:20:28.861Z,6.90
2019-05-11T12:22:58.551Z,6.40
2019-05-11T12:25:30.089Z,6.67
2019-05-11T12:28:00.159Z,5.40
2019-05-11T12:30:29.716Z,5.67
2019-05-11T12:32:59.788Z,4.73
2019-05-11T12:35:30.100Z,5.40
2019-05-11T12:37:59.378Z,5.80
2019-05-11T12:40:31.844Z,5.85
2019-05-11T12:43:01.964Z,4.93
2019-05-11T12:45:31.078Z,5.17
2019-05-11T12:48:08.975Z,5.07
2019-05-11T12:50:38.990Z,4.85
2019-05-11T12:53:08.203Z,4.30
2019-05-11T12:55:38.097Z,3.90
2019-05-11T12:58:08.619Z,4.50
2019-05-11T13:00:39.092Z,4.73
2019-05-11T13:03:08.366Z,4.40
2019-05-11T13:05:37.802Z,4.97
2019-05-11T13:08:08.122Z,5.00
2019-05-11T13:10:41.380Z,5.13
2019-05-11T13:13:10.395Z,5.20
2019-05-11T13:15:39.671Z,4.80
2019-05-11T13:18:12.129Z,4.23
2019-05-11T13:21:07.563Z,3.57
2019-05-11T13:23:38.201Z,3.87
2019-05-11T13:26:08.791Z,3.77
2019-05-11T13:28:40.658Z,4.03
2019-05-11T13:31:09.706Z,4.13
2019-05-11T13:33:38.939Z,4.47
2019-05-11T13:36:09.095Z,3.47
2019-05-11T13:38:38.916Z,4.43
2019-05-11T13:41:08.147Z,3.60
2019-05-11T13:43:38.623Z,3.90
2019-05-11T13:46:08.703Z,3.57
2019-05-11T13:48:38.720Z,3.73
2019-05-11T13:51:08.741Z,3.73
2019-05-11T13:53:37.826Z,4.00
2019-05-11T13:56:07.993Z,4.93
2019-05-11T13:58:38.264Z,4.20
2019-05-11T14:01:08.040Z,3.70
2019-05-11T14:03:37.837Z,3.73
2019-05-11T14:06:08.810Z,3.87
2019-05-11T14:08:38.441Z,3.63
2019-05-11T14:11:08.734Z,3.87
2019-05-11T14:13:48.010Z,3.53
2019-05-11T14:16:18.584Z,4.50
2019-05-11T14:19:08.862Z,4.23
2019-05-11T14:22:08.665Z,3.77
2019-05-11T14:24:39.183Z,4.30
2019-05-11T14:27:12.749Z,5.03
2019-05-11T14:29:42.272Z,4.30
2019-05-11T14:32:12.397Z,4.30
2019-05-11T14:34:57.733Z,3.53
2019-05-11T14:37:30.820Z,3.77
2019-05-11T14:40:01.191Z,4.10
2019-05-11T14:42:54.119Z,4.60
2019-05-11T14:45:29.680Z,4.47
2019-05-11T14:47:59.588Z,4.70
2019-05-11T14:50:34.928Z,4.70
2019-05-11T14:53:12.057Z,4.57
2019-05-11T14:56:11.272Z,3.87
2019-05-11T14:58:43.946Z,4.77
2019-05-11T15:01:18.073Z,4.17
2019-05-11T15:03:52.669Z,4.20
2019-05-11T15:06:22.023Z,4.10
2019-05-11T15:08:52.971Z,4.03
2019-05-11T15:11:23.341Z,4.27
2019-05-11T15:13:59.746Z,3.90
2019-05-11T15:16:30.167Z,4.07
2019-05-11T15:19:03.093Z,4.10
2019-05-11T15:21:35.105Z,4.60
2019-05-11T15:24:05.079Z,4.30
2019-05-11T15:26:38.156Z,4.10
2019-05-11T15:29:08.442Z,4.50
2019-05-11T15:31:38.836Z,4.23
2019-05-11T15:34:11.995Z,5.03
2019-05-11T15:36:44.054Z,4.33
2019-05-11T15:39:18.385Z,4.30
2019-05-11T15:41:49.656Z,4.70
2019-05-11T15:44:23.544Z,4.58
2019-05-11T15:46:53.004Z,4.47
2019-05-11T15:49:23.314Z,5.20
2019-05-11T15:51:52.927Z,4.37
2019-05-11T15:54:22.798Z,4.70
2019-05-11T15:56:59.632Z,4.30
2019-05-11T15:59:27.987Z,4.93
2019-05-11T16:02:03.640Z,4.83
2019-05-11T16:04:33.666Z,5.03
2019-05-11T16:07:03.383Z,4.40
2019-05-11T16:09:32.515Z,5.60
2019-05-11T16:12:02.396Z,4.57
2019-05-11T16:14:32.960Z,4.77
2019-05-11T16:17:02.910Z,4.57
2019-05-11T16:19:49.689Z,4.80
2019-05-11T16:22:23.372Z,4.43
2019-05-11T16:24:53.620Z,4.97
2019-05-11T16:27:23.908Z,4.47
2019-05-11T16:29:55.383Z,5.30
2019-05-11T16:32:27.621Z,4.37
2019-05-11T16:35:04.456Z,4.17
2019-05-11T16:37:38.997Z,4.47
2019-05-11T16:40:12.996Z,4.17
2019-05-11T16:43:02.980Z,6.03
2019-05-11T16:45:33.885Z,5.70
2019-05-11T16:48:07.955Z,5.33
2019-05-11T16:50:45.125Z,6.90
2019-05-11T16:53:14.624Z,5.60
2019-05-11T16:55:51.255Z,7.00
2019-05-11T16:58:24.402Z,5.53
2019-05-11T17:00:58.562Z,5.17
2019-05-11T17:03:28.973Z,4.30
2019-05-11T17:05:59.049Z,4.73
2019-05-11T17:08:32.713Z,4.30
2019-05-11T17:11:02.669Z,4.97
2019-05-11T17:13:37.990Z,5.10
2019-05-11T17:16:10.412Z,5.37
2019-05-11T17:18:41.922Z,4.20
2019-05-11T17:21:11.882Z,4.80
2019-05-11T17:23:48.761Z,6.10
2019-05-11T17:26:22.457Z,5.63
2019-05-11T17:29:00.364Z,5.07
2019-05-11T17:31:37.990Z,4.97
2019-05-11T17:34:11.576Z,6.55
2019-05-11T17:36:42.640Z,5.93
2019-05-11T17:39:13.116Z,6.37
2019-05-11T17:41:49.243Z,5.47
2019-05-11T17:44:31.119Z,6.47
2019-05-11T17:47:02.209Z,5.20
2019-05-11T17:49:37.816Z,5.10
2019-05-11T17:52:09.133Z,5.27
2019-05-11T17:54:39.747Z,5.63
2019-05-11T17:57:11.500Z,4.70
2019-05-11T17:59:41.597Z,5.23
2019-05-11T18:02:11.296Z,5.00
2019-05-11T18:04:43.313Z,4.27
2019-05-11T18:07:25.210Z,4.83
2019-05-11T18:09:49.271Z,7.20
2019-05-11T18:12:19.797Z,6.27
2019-05-11T18:14:51.719Z,5.90
2019-05-11T18:17:21.403Z,5.90
2019-05-11T18:19:51.042Z,5.63
2019-05-11T18:22:23.824Z,4.60
2019-05-11T18:24:57.995Z,4.70
2019-05-11T18:27:27.837Z,5.07
2019-05-11T18:29:59.313Z,5.60
2019-05-11T18:32:29.282Z,4.50
2019-05-11T18:35:00.035Z,5.20
2019-05-11T18:37:30.567Z,5.03
2019-05-11T18:40:00.479Z,4.78
2019-05-11T18:42:38.206Z,4.90
2019-05-11T18:45:08.471Z,4.80
2019-05-11T18:47:39.149Z,4.60
2019-05-11T18:50:08.466Z,4.43
2019-05-11T18:52:37.884Z,4.57
2019-05-11T18:55:08.412Z,4.20
2019-05-11T18:57:38.349Z,4.17
2019-05-11T19:00:08.306Z,4.70
2019-05-11T19:02:38.528Z,4.50
2019-05-11T19:05:07.769Z,4.30
2019-05-11T19:07:38.756Z,5.30
2019-05-11T19:10:09.285Z,4.10
2019-05-11T19:12:44.595Z,4.30
2019-05-11T19:15:18.704Z,4.83
2019-05-11T19:17:51.888Z,3.60
2019-05-11T19:20:20.904Z,4.13
2019-05-11T19:22:53.067Z,3.10
2019-05-11T19:25:21.952Z,2.70
2019-05-11T19:27:51.247Z,2.27
2019-05-11T19:30:20.681Z,2.80
2019-05-11T19:32:49.807Z,2.57
2019-05-11T19:35:21.126Z,2.97
2019-05-11T19:37:49.951Z,2.40
2019-05-11T19:40:18.968Z,2.53
2019-05-11T19:42:55.161Z,2.30
2019-05-11T19:45:24.262Z,2.22
2019-05-11T19:47:53.202Z,1.90
2019-05-11T19:50:23.339Z,2.53
2019-05-11T19:52:52.667Z,2.07
2019-05-11T19:55:21.646Z,2.60
2019-05-11T19:57:50.580Z,2.40
2019-05-11T20:00:20.270Z,2.40
2019-05-11T20:02:49.386Z,2.60
2019-05-11T20:05:18.676Z,2.30
2019-05-11T20:07:48.723Z,2.80
2019-05-11T20:10:20.453Z,3.70
2019-05-11T20:12:49.714Z,3.27
2019-05-11T20:15:19.210Z,2.60
2019-05-11T20:17:49.088Z,2.30
2019-05-11T20:20:18.795Z,2.50
2019-05-11T20:22:48.535Z,2.10
2019-05-11T20:25:18.960Z,2.40
2019-05-11T20:27:48.863Z,2.10
2019-05-11T20:30:18.272Z,1.80
2019-05-11T20:32:48.849Z,2.10
2019-05-11T20:35:18.310Z,2.30
2019-05-11T20:37:47.739Z,1.93
2019-05-11T20:40:18.271Z,2.27
2019-05-11T20:42:48.689Z,1.60
2019-05-11T20:45:18.447Z,2.10
2019-05-11T20:47:48.953Z,2.10
2019-05-11T20:50:18.678Z,1.80
2019-05-11T20:52:48.263Z,1.97
2019-05-11T20:55:18.136Z,3.10
2019-05-11T20:57:48.620Z,2.07
2019-05-11T21:00:19.585Z,2.30
2019-05-11T21:02:48.836Z,2.50
2019-05-11T21:05:18.331Z,2.10
2019-05-11T21:07:47.675Z,2.20
2019-05-11T21:10:16.732Z,2.45
2019-05-11T21:12:46.255Z,2.00
2019-05-11T21:15:15.325Z,2.37
2019-05-11T21:17:44.579Z,2.20
2019-05-11T21:20:13.458Z,2.40
2019-05-11T21:22:48.728Z,2.50
2019-05-11T21:25:18.140Z,2.43
2019-05-11T21:27:48.676Z,2.10
2019-05-11T21:30:18.747Z,3.10
2019-05-11T21:32:48.132Z,2.13
2019-05-11T21:35:19.276Z,2.37
2019-05-11T21:37:48.721Z,2.30
2019-05-11T21:40:18.481Z,1.93
2019-05-11T21:42:47.772Z,2.00
2019-05-11T21:45:18.344Z,2.37
2019-05-11T21:47:48.971Z,2.20
2019-05-11T21:50:19.283Z,3.73
2019-05-11T21:52:48.689Z,3.67
2019-05-11T21:55:17.617Z,3.80
2019-05-11T21:57:49.504Z,4.10
2019-05-11T22:00:18.884Z,2.97
2019-05-11T22:02:50.403Z,2.62
2019-05-11T22:05:20.879Z,2.37
2019-05-11T22:07:50.534Z,2.10
2019-05-11T22:10:20.248Z,2.00
2019-05-11T22:12:50.983Z,2.40
2019-05-11T22:15:20.251Z,2.30
2019-05-11T22:17:49.248Z,2.33
2019-05-11T22:20:19.184Z,2.53
2019-05-11T22:22:48.387Z,2.07
2019-05-11T22:25:18.333Z,2.30
2019-05-11T22:27:48.854Z,2.33
2019-05-11T22:30:18.672Z,2.27
2019-05-11T22:32:47.939Z,2.03
2019-05-11T22:35:18.277Z,2.50
2019-05-11T22:37:49.241Z,3.70
2019-05-11T22:40:18.525Z,2.73
2019-05-11T22:42:48.940Z,2.53
2019-05-11T22:45:18.629Z,2.10
2019-05-11T22:47:48.132Z,2.20
2019-05-11T22:50:18.726Z,2.47
2019-05-11T22:52:48.497Z,2.35
2019-05-11T22:55:18.854Z,2.57
2019-05-11T22:57:48.546Z,2.12
2019-05-11T23:00:24.976Z,2.43
2019-05-11T23:02:54.063Z,2.33
2019-05-11T23:05:22.911Z,2.10
2019-05-11T23:07:51.694Z,2.00
2019-05-11T23:10:20.715Z,2.97
2019-05-11T23:12:57.246Z,2.47
2019-05-11T23:15:26.114Z,2.90
2019-05-11T23:17:54.963Z,2.50
2019-05-11T23:20:24.053Z,2.23
2019-05-11T23:22:59.013Z,2.53
2019-05-11T23:25:24.830Z,2.30
2019-05-11T23:27:53.627Z,3.03
2019-05-11T23:30:22.839Z,2.20
2019-05-11T23:32:51.709Z,1.63
2019-05-11T23:35:20.856Z,2.17
2019-05-11T23:37:50.197Z,2.37
2019-05-11T23:40:19.976Z,2.10
2019-05-11T23:42:49.471Z,2.67
2019-05-11T23:45:19.380Z,2.70
2019-05-11T23:47:51.738Z,2.60
2019-05-11T23:50:33.472Z,1.83
2019-05-11T23:53:06.494Z,2.03
2019-05-11T23:55:33.074Z,3.20
2019-05-11T23:58:01.901Z,2.00
